sensor_id;sensor_type;location;lat;lon;timestamp;temperature;humidity
33508;DHT22;25568;37.410;-122.096;2023-02-03T00:00:46;17.30;78.30
33508;DHT22;25568;37.410;-122.096;2023-02-03T00:03:15;17.30;78.20
33508;DHT22;25568;37.410;-122.096;2023-02-03T00:05:44;17.30;78.10
33508;DHT22;25568;37.410;-122.096;2023-02-03T00:08:15;17.40;78.10
33508;DHT22;25568;37.410;-122.096;2023-02-03T00:10:45;17.40;77.90
33508;DHT22;25568;37.410;-122.096;2023-02-03T00:13:14;17.40;77.90
33508;DHT22;25568;37.410;-122.096;2023-02-03T00:15:45;17.40;77.60
33508;DHT22;25568;37.410;-122.096;2023-02-03T00:18:14;17.40;78.40
33508;DHT22;25568;37.410;-122.096;2023-02-03T00:20:43;17.40;77.40
33508;DHT22;25568;37.410;-122.096;2023-02-03T00:23:16;17.40;77.10
33508;DHT22;25568;37.410;-122.096;2023-02-03T00:25:45;17.40;76.90
33508;DHT22;25568;37.410;-122.096;2023-02-03T00:28:14;17.40;76.70
33508;DHT22;25568;37.410;-122.096;2023-02-03T00:30:43;17.40;76.80
33508;DHT22;25568;37.410;-122.096;2023-02-03T00:33:14;17.40;76.60
33508;DHT22;25568;37.410;-122.096;2023-02-03T00:35:43;17.50;76.60
33508;DHT22;25568;37.410;-122.096;2023-02-03T00:38:12;17.50;76.50
33508;DHT22;25568;37.410;-122.096;2023-02-03T00:40:41;17.50;76.40
33508;DHT22;25568;37.410;-122.096;2023-02-03T00:43:11;17.50;76.30
33508;DHT22;25568;37.410;-122.096;2023-02-03T00:45:40;17.50;76.20
33508;DHT22;25568;37.410;-122.096;2023-02-03T00:48:10;17.50;76.10
33508;DHT22;25568;37.410;-122.096;2023-02-03T00:50:41;17.50;76.00
33508;DHT22;25568;37.410;-122.096;2023-02-03T00:53:10;17.60;76.00
33508;DHT22;25568;37.410;-122.096;2023-02-03T00:55:41;17.60;75.90
33508;DHT22;25568;37.410;-122.096;2023-02-03T00:58:10;17.50;75.60
33508;DHT22;25568;37.410;-122.096;2023-02-03T01:00:39;17.50;75.70
33508;DHT22;25568;37.410;-122.096;2023-02-03T01:03:09;17.50;75.80
33508;DHT22;25568;37.410;-122.096;2023-02-03T01:05:38;17.50;75.60
33508;DHT22;25568;37.410;-122.096;2023-02-03T01:08:09;17.50;75.80
33508;DHT22;25568;37.410;-122.096;2023-02-03T01:10:41;17.50;75.70
33508;DHT22;25568;37.410;-122.096;2023-02-03T01:13:10;17.50;75.70
33508;DHT22;25568;37.410;-122.096;2023-02-03T01:15:45;17.60;75.70
33508;DHT22;25568;37.410;-122.096;2023-02-03T01:18:22;17.60;75.80
33508;DHT22;25568;37.410;-122.096;2023-02-03T01:20:51;17.60;75.60
33508;DHT22;25568;37.410;-122.096;2023-02-03T01:23:22;17.60;75.60
33508;DHT22;25568;37.410;-122.096;2023-02-03T01:25:51;17.60;75.60
33508;DHT22;25568;37.410;-122.096;2023-02-03T01:28:22;17.60;75.60
33508;DHT22;25568;37.410;-122.096;2023-02-03T01:30:51;17.60;75.40
33508;DHT22;25568;37.410;-122.096;2023-02-03T01:33:21;17.60;75.40
33508;DHT22;25568;37.410;-122.096;2023-02-03T01:35:50;17.70;75.40
33508;DHT22;25568;37.410;-122.096;2023-02-03T01:38:23;17.70;75.30
33508;DHT22;25568;37.410;-122.096;2023-02-03T01:40:53;17.70;75.10
33508;DHT22;25568;37.410;-122.096;2023-02-03T01:43:29;17.80;75.00
33508;DHT22;25568;37.410;-122.096;2023-02-03T01:46:00;17.90;74.80
33508;DHT22;25568;37.410;-122.096;2023-02-03T01:48:34;17.90;74.70
33508;DHT22;25568;37.410;-122.096;2023-02-03T01:51:05;18.00;74.90
33508;DHT22;25568;37.410;-122.096;2023-02-03T01:53:36;18.00;74.80
33508;DHT22;25568;37.410;-122.096;2023-02-03T01:56:09;18.00;74.60
33508;DHT22;25568;37.410;-122.096;2023-02-03T01:58:41;18.00;74.50
33508;DHT22;25568;37.410;-122.096;2023-02-03T02:01:13;18.00;74.30
33508;DHT22;25568;37.410;-122.096;2023-02-03T02:03:49;18.00;74.30
33508;DHT22;25568;37.410;-122.096;2023-02-03T02:06:26;18.10;74.30
33508;DHT22;25568;37.410;-122.096;2023-02-03T02:09:05;18.10;74.20
33508;DHT22;25568;37.410;-122.096;2023-02-03T02:11:34;18.10;74.00
33508;DHT22;25568;37.410;-122.096;2023-02-03T02:14:03;18.10;74.00
33508;DHT22;25568;37.410;-122.096;2023-02-03T02:16:59;18.20;73.90
33508;DHT22;25568;37.410;-122.096;2023-02-03T02:22:49;18.20;73.70
33508;DHT22;25568;37.410;-122.096;2023-02-03T02:25:47;18.20;73.80
33508;DHT22;25568;37.410;-122.096;2023-02-03T02:29:01;18.20;73.50
33508;DHT22;25568;37.410;-122.096;2023-02-03T02:31:52;18.20;73.50
33508;DHT22;25568;37.410;-122.096;2023-02-03T02:34:33;18.20;73.40
33508;DHT22;25568;37.410;-122.096;2023-02-03T02:37:18;18.20;73.40
33508;DHT22;25568;37.410;-122.096;2023-02-03T02:39:56;18.20;73.10
33508;DHT22;25568;37.410;-122.096;2023-02-03T02:42:31;18.20;73.10
33508;DHT22;25568;37.410;-122.096;2023-02-03T02:45:09;18.20;72.90
33508;DHT22;25568;37.410;-122.096;2023-02-03T02:47:41;18.20;72.90
33508;DHT22;25568;37.410;-122.096;2023-02-03T02:50:15;18.20;72.80
33508;DHT22;25568;37.410;-122.096;2023-02-03T02:52:48;18.20;72.70
33508;DHT22;25568;37.410;-122.096;2023-02-03T02:55:22;18.20;72.60
33508;DHT22;25568;37.410;-122.096;2023-02-03T02:57:57;18.20;72.50
33508;DHT22;25568;37.410;-122.096;2023-02-03T03:00:33;18.20;72.50
33508;DHT22;25568;37.410;-122.096;2023-02-03T03:03:12;18.20;72.30
33508;DHT22;25568;37.410;-122.096;2023-02-03T03:05:45;18.20;72.30
33508;DHT22;25568;37.410;-122.096;2023-02-03T03:08:18;18.20;72.20
33508;DHT22;25568;37.410;-122.096;2023-02-03T03:10:50;18.20;72.10
33508;DHT22;25568;37.410;-122.096;2023-02-03T03:13:27;18.20;72.00
33508;DHT22;25568;37.410;-122.096;2023-02-03T03:15:59;18.20;72.00
33508;DHT22;25568;37.410;-122.096;2023-02-03T03:18:35;18.20;72.10
33508;DHT22;25568;37.410;-122.096;2023-02-03T03:21:06;18.20;72.00
33508;DHT22;25568;37.410;-122.096;2023-02-03T03:23:38;18.20;72.00
33508;DHT22;25568;37.410;-122.096;2023-02-03T03:26:13;18.20;72.00
33508;DHT22;25568;37.410;-122.096;2023-02-03T03:28:48;18.20;71.70
33508;DHT22;25568;37.410;-122.096;2023-02-03T03:31:19;18.20;71.70
33508;DHT22;25568;37.410;-122.096;2023-02-03T03:33:50;18.20;71.60
33508;DHT22;25568;37.410;-122.096;2023-02-03T03:36:23;18.20;71.50
33508;DHT22;25568;37.410;-122.096;2023-02-03T03:39:02;18.20;71.50
33508;DHT22;25568;37.410;-122.096;2023-02-03T03:41:39;18.20;72.30
33508;DHT22;25568;37.410;-122.096;2023-02-03T03:44:12;18.20;71.50
33508;DHT22;25568;37.410;-122.096;2023-02-03T03:46:45;18.20;71.40
33508;DHT22;25568;37.410;-122.096;2023-02-03T03:49:19;18.20;71.30
33508;DHT22;25568;37.410;-122.096;2023-02-03T03:51:54;18.20;71.20
33508;DHT22;25568;37.410;-122.096;2023-02-03T03:54:25;18.20;71.20
33508;DHT22;25568;37.410;-122.096;2023-02-03T03:56:59;18.20;71.10
33508;DHT22;25568;37.410;-122.096;2023-02-03T03:59:33;18.20;71.30
33508;DHT22;25568;37.410;-122.096;2023-02-03T04:02:04;18.20;71.40
33508;DHT22;25568;37.410;-122.096;2023-02-03T04:04:36;18.20;71.30
33508;DHT22;25568;37.410;-122.096;2023-02-03T04:07:06;18.20;71.20
33508;DHT22;25568;37.410;-122.096;2023-02-03T04:09:35;18.20;71.20
33508;DHT22;25568;37.410;-122.096;2023-02-03T04:12:08;18.20;71.40
33508;DHT22;25568;37.410;-122.096;2023-02-03T04:14:44;18.20;71.20
33508;DHT22;25568;37.410;-122.096;2023-02-03T04:17:13;18.20;71.20
33508;DHT22;25568;37.410;-122.096;2023-02-03T04:19:47;18.20;71.10
33508;DHT22;25568;37.410;-122.096;2023-02-03T04:22:18;18.20;71.10
33508;DHT22;25568;37.410;-122.096;2023-02-03T04:24:47;18.20;71.10
33508;DHT22;25568;37.410;-122.096;2023-02-03T04:27:17;18.20;71.10
33508;DHT22;25568;37.410;-122.096;2023-02-03T04:29:46;18.20;71.00
33508;DHT22;25568;37.410;-122.096;2023-02-03T04:32:16;18.20;71.20
33508;DHT22;25568;37.410;-122.096;2023-02-03T04:34:47;18.20;70.90
33508;DHT22;25568;37.410;-122.096;2023-02-03T04:37:16;18.20;70.90
33508;DHT22;25568;37.410;-122.096;2023-02-03T04:39:46;18.20;70.90
33508;DHT22;25568;37.410;-122.096;2023-02-03T04:42:15;18.20;70.90
33508;DHT22;25568;37.410;-122.096;2023-02-03T04:44:44;18.20;70.80
33508;DHT22;25568;37.410;-122.096;2023-02-03T04:47:14;18.20;70.80
33508;DHT22;25568;37.410;-122.096;2023-02-03T04:49:43;18.20;70.70
33508;DHT22;25568;37.410;-122.096;2023-02-03T04:52:14;18.20;70.70
33508;DHT22;25568;37.410;-122.096;2023-02-03T04:54:43;18.20;70.70
33508;DHT22;25568;37.410;-122.096;2023-02-03T04:57:13;18.20;70.60
33508;DHT22;25568;37.410;-122.096;2023-02-03T04:59:41;18.20;70.60
33508;DHT22;25568;37.410;-122.096;2023-02-03T05:02:10;18.20;70.70
33508;DHT22;25568;37.410;-122.096;2023-02-03T05:04:39;18.20;70.70
33508;DHT22;25568;37.410;-122.096;2023-02-03T05:07:09;18.20;70.70
33508;DHT22;25568;37.410;-122.096;2023-02-03T05:09:40;18.20;70.70
33508;DHT22;25568;37.410;-122.096;2023-02-03T05:12:09;18.20;70.70
33508;DHT22;25568;37.410;-122.096;2023-02-03T05:14:38;18.10;70.50
33508;DHT22;25568;37.410;-122.096;2023-02-03T05:17:07;18.20;70.60
33508;DHT22;25568;37.410;-122.096;2023-02-03T05:19:36;18.20;70.60
33508;DHT22;25568;37.410;-122.096;2023-02-03T05:22:05;18.20;70.60
33508;DHT22;25568;37.410;-122.096;2023-02-03T05:24:34;18.20;70.60
33508;DHT22;25568;37.410;-122.096;2023-02-03T05:27:05;18.20;70.60
33508;DHT22;25568;37.410;-122.096;2023-02-03T05:29:34;18.10;70.60
33508;DHT22;25568;37.410;-122.096;2023-02-03T05:32:03;18.10;70.60
33508;DHT22;25568;37.410;-122.096;2023-02-03T05:34:35;18.20;70.60
33508;DHT22;25568;37.410;-122.096;2023-02-03T05:37:03;18.20;70.60
33508;DHT22;25568;37.410;-122.096;2023-02-03T05:39:32;18.10;70.50
33508;DHT22;25568;37.410;-122.096;2023-02-03T05:42:01;18.10;70.50
33508;DHT22;25568;37.410;-122.096;2023-02-03T05:44:33;18.10;70.50
33508;DHT22;25568;37.410;-122.096;2023-02-03T05:47:03;18.10;70.50
33508;DHT22;25568;37.410;-122.096;2023-02-03T05:49:32;18.10;70.60
33508;DHT22;25568;37.410;-122.096;2023-02-03T05:52:01;18.10;70.90
33508;DHT22;25568;37.410;-122.096;2023-02-03T05:54:30;18.10;70.70
33508;DHT22;25568;37.410;-122.096;2023-02-03T05:56:59;18.10;70.80
33508;DHT22;25568;37.410;-122.096;2023-02-03T05:59:27;18.10;70.80
33508;DHT22;25568;37.410;-122.096;2023-02-03T06:01:58;18.10;70.70
33508;DHT22;25568;37.410;-122.096;2023-02-03T06:04:27;18.10;70.80
33508;DHT22;25568;37.410;-122.096;2023-02-03T06:06:56;18.10;70.90
33508;DHT22;25568;37.410;-122.096;2023-02-03T06:09:25;18.00;70.80
33508;DHT22;25568;37.410;-122.096;2023-02-03T06:11:53;18.00;70.80
33508;DHT22;25568;37.410;-122.096;2023-02-03T06:14:22;18.00;70.90
33508;DHT22;25568;37.410;-122.096;2023-02-03T06:16:51;18.00;70.80
33508;DHT22;25568;37.410;-122.096;2023-02-03T06:19:22;18.00;70.90
33508;DHT22;25568;37.410;-122.096;2023-02-03T06:21:50;18.00;70.90
33508;DHT22;25568;37.410;-122.096;2023-02-03T06:24:19;18.00;70.90
33508;DHT22;25568;37.410;-122.096;2023-02-03T06:26:48;18.00;70.90
33508;DHT22;25568;37.410;-122.096;2023-02-03T06:29:17;18.00;70.90
33508;DHT22;25568;37.410;-122.096;2023-02-03T06:31:46;18.00;70.90
33508;DHT22;25568;37.410;-122.096;2023-02-03T06:34:15;18.00;70.90
33508;DHT22;25568;37.410;-122.096;2023-02-03T06:36:45;18.00;70.90
33508;DHT22;25568;37.410;-122.096;2023-02-03T06:39:15;18.00;71.00
33508;DHT22;25568;37.410;-122.096;2023-02-03T06:41:44;18.00;71.00
33508;DHT22;25568;37.410;-122.096;2023-02-03T06:44:13;18.00;71.00
33508;DHT22;25568;37.410;-122.096;2023-02-03T06:46:42;18.00;71.10
33508;DHT22;25568;37.410;-122.096;2023-02-03T06:49:11;18.00;71.00
33508;DHT22;25568;37.410;-122.096;2023-02-03T06:51:40;18.00;71.00
33508;DHT22;25568;37.410;-122.096;2023-02-03T06:54:12;18.00;71.10
33508;DHT22;25568;37.410;-122.096;2023-02-03T06:56:41;18.00;71.30
33508;DHT22;25568;37.410;-122.096;2023-02-03T06:59:10;18.00;71.30
33508;DHT22;25568;37.410;-122.096;2023-02-03T07:01:39;18.00;71.50
33508;DHT22;25568;37.410;-122.096;2023-02-03T07:04:08;18.00;71.70
33508;DHT22;25568;37.410;-122.096;2023-02-03T07:06:37;17.90;71.80
33508;DHT22;25568;37.410;-122.096;2023-02-03T07:09:06;17.90;71.80
33508;DHT22;25568;37.410;-122.096;2023-02-03T07:11:37;17.90;72.00
33508;DHT22;25568;37.410;-122.096;2023-02-03T07:14:06;17.90;72.10
33508;DHT22;25568;37.410;-122.096;2023-02-03T07:16:35;17.90;72.20
33508;DHT22;25568;37.410;-122.096;2023-02-03T07:19:05;18.00;72.50
33508;DHT22;25568;37.410;-122.096;2023-02-03T07:21:34;17.90;72.70
33508;DHT22;25568;37.410;-122.096;2023-02-03T07:24:04;17.90;72.80
33508;DHT22;25568;37.410;-122.096;2023-02-03T07:26:33;17.90;73.00
33508;DHT22;25568;37.410;-122.096;2023-02-03T07:29:03;17.90;73.10
33508;DHT22;25568;37.410;-122.096;2023-02-03T07:31:32;18.00;73.30
33508;DHT22;25568;37.410;-122.096;2023-02-03T07:34:01;18.00;73.30
33508;DHT22;25568;37.410;-122.096;2023-02-03T07:36:30;18.10;73.10
33508;DHT22;25568;37.410;-122.096;2023-02-03T07:38:59;18.20;73.10
33508;DHT22;25568;37.410;-122.096;2023-02-03T07:41:27;18.20;73.10
33508;DHT22;25568;37.410;-122.096;2023-02-03T07:43:56;18.20;73.00
33508;DHT22;25568;37.410;-122.096;2023-02-03T07:46:27;18.20;73.60
33508;DHT22;25568;37.410;-122.096;2023-02-03T07:48:56;18.20;73.00
33508;DHT22;25568;37.410;-122.096;2023-02-03T07:51:32;18.20;73.20
33508;DHT22;25568;37.410;-122.096;2023-02-03T07:54:01;18.20;73.10
33508;DHT22;25568;37.410;-122.096;2023-02-03T07:56:30;18.20;73.30
33508;DHT22;25568;37.410;-122.096;2023-02-03T07:58:59;18.20;73.20
33508;DHT22;25568;37.410;-122.096;2023-02-03T08:01:29;18.20;73.40
33508;DHT22;25568;37.410;-122.096;2023-02-03T08:03:59;18.20;73.50
33508;DHT22;25568;37.410;-122.096;2023-02-03T08:06:31;18.20;73.50
33508;DHT22;25568;37.410;-122.096;2023-02-03T08:09:00;18.20;73.60
33508;DHT22;25568;37.410;-122.096;2023-02-03T08:11:29;18.20;73.50
33508;DHT22;25568;37.410;-122.096;2023-02-03T08:13:58;18.20;73.80
33508;DHT22;25568;37.410;-122.096;2023-02-03T08:16:28;18.20;74.10
33508;DHT22;25568;37.410;-122.096;2023-02-03T08:18:57;18.20;73.80
33508;DHT22;25568;37.410;-122.096;2023-02-03T08:21:26;18.20;74.10
33508;DHT22;25568;37.410;-122.096;2023-02-03T08:23:55;18.20;74.10
33508;DHT22;25568;37.410;-122.096;2023-02-03T08:26:24;18.20;73.80
33508;DHT22;25568;37.410;-122.096;2023-02-03T08:28:52;18.20;73.60
33508;DHT22;25568;37.410;-122.096;2023-02-03T08:31:21;18.20;73.70
33508;DHT22;25568;37.410;-122.096;2023-02-03T08:33:52;18.20;73.70
33508;DHT22;25568;37.410;-122.096;2023-02-03T08:36:21;18.20;73.70
33508;DHT22;25568;37.410;-122.096;2023-02-03T08:38:50;18.20;73.80
33508;DHT22;25568;37.410;-122.096;2023-02-03T08:41:19;18.20;73.80
33508;DHT22;25568;37.410;-122.096;2023-02-03T08:43:48;18.20;74.00
33508;DHT22;25568;37.410;-122.096;2023-02-03T08:46:17;18.20;74.00
33508;DHT22;25568;37.410;-122.096;2023-02-03T08:48:49;18.20;74.00
33508;DHT22;25568;37.410;-122.096;2023-02-03T08:51:20;18.10;74.00
33508;DHT22;25568;37.410;-122.096;2023-02-03T08:53:50;18.10;73.90
33508;DHT22;25568;37.410;-122.096;2023-02-03T08:56:19;18.10;74.00
33508;DHT22;25568;37.410;-122.096;2023-02-03T08:58:48;18.10;74.00
33508;DHT22;25568;37.410;-122.096;2023-02-03T09:01:17;18.10;74.10
33508;DHT22;25568;37.410;-122.096;2023-02-03T09:03:45;18.10;74.20
33508;DHT22;25568;37.410;-122.096;2023-02-03T09:06:14;18.10;74.10
33508;DHT22;25568;37.410;-122.096;2023-02-03T09:08:46;18.00;74.10
33508;DHT22;25568;37.410;-122.096;2023-02-03T09:11:16;18.00;74.10
33508;DHT22;25568;37.410;-122.096;2023-02-03T09:13:45;18.00;74.20
33508;DHT22;25568;37.410;-122.096;2023-02-03T09:16:15;18.00;74.40
33508;DHT22;25568;37.410;-122.096;2023-02-03T09:18:45;18.00;74.30
33508;DHT22;25568;37.410;-122.096;2023-02-03T09:21:15;18.00;74.30
33508;DHT22;25568;37.410;-122.096;2023-02-03T09:23:46;18.00;74.30
33508;DHT22;25568;37.410;-122.096;2023-02-03T09:26:15;18.00;74.30
33508;DHT22;25568;37.410;-122.096;2023-02-03T09:28:47;18.00;74.30
33508;DHT22;25568;37.410;-122.096;2023-02-03T09:31:19;18.00;74.30
33508;DHT22;25568;37.410;-122.096;2023-02-03T09:33:48;18.00;74.50
33508;DHT22;25568;37.410;-122.096;2023-02-03T09:36:17;18.00;74.40
33508;DHT22;25568;37.410;-122.096;2023-02-03T09:38:48;18.00;74.30
33508;DHT22;25568;37.410;-122.096;2023-02-03T09:41:25;18.10;74.50
33508;DHT22;25568;37.410;-122.096;2023-02-03T09:44:05;18.10;74.30
33508;DHT22;25568;37.410;-122.096;2023-02-03T09:46:40;18.10;74.60
33508;DHT22;25568;37.410;-122.096;2023-02-03T09:49:15;18.10;74.30
33508;DHT22;25568;37.410;-122.096;2023-02-03T09:51:49;18.10;75.30
33508;DHT22;25568;37.410;-122.096;2023-02-03T09:54:29;18.20;74.50
33508;DHT22;25568;37.410;-122.096;2023-02-03T09:57:05;18.20;74.50
33508;DHT22;25568;37.410;-122.096;2023-02-03T09:59:39;18.20;74.90
33508;DHT22;25568;37.410;-122.096;2023-02-03T10:02:31;18.20;74.80
33508;DHT22;25568;37.410;-122.096;2023-02-03T10:05:09;18.20;74.80
33508;DHT22;25568;37.410;-122.096;2023-02-03T10:07:49;18.20;74.80
33508;DHT22;25568;37.410;-122.096;2023-02-03T10:10:35;18.20;74.80
33508;DHT22;25568;37.410;-122.096;2023-02-03T10:13:13;18.20;74.90
33508;DHT22;25568;37.410;-122.096;2023-02-03T10:19:19;18.30;75.10
33508;DHT22;25568;37.410;-122.096;2023-02-03T10:21:53;18.30;75.00
33508;DHT22;25568;37.410;-122.096;2023-02-03T10:24:27;18.30;75.10
33508;DHT22;25568;37.410;-122.096;2023-02-03T10:27:04;18.30;75.10
33508;DHT22;25568;37.410;-122.096;2023-02-03T10:29:37;18.30;75.00
33508;DHT22;25568;37.410;-122.096;2023-02-03T10:32:11;18.30;74.90
33508;DHT22;25568;37.410;-122.096;2023-02-03T10:34:43;18.30;75.00
33508;DHT22;25568;37.410;-122.096;2023-02-03T10:37:24;18.30;75.10
33508;DHT22;25568;37.410;-122.096;2023-02-03T10:39:55;18.30;75.20
33508;DHT22;25568;37.410;-122.096;2023-02-03T10:42:28;18.30;75.30
33508;DHT22;25568;37.410;-122.096;2023-02-03T10:45:17;18.30;75.40
33508;DHT22;25568;37.410;-122.096;2023-02-03T10:47:50;18.30;75.50
33508;DHT22;25568;37.410;-122.096;2023-02-03T10:50:23;18.30;75.50
33508;DHT22;25568;37.410;-122.096;2023-02-03T10:53:20;18.30;75.60
33508;DHT22;25568;37.410;-122.096;2023-02-03T10:55:51;18.30;75.60
33508;DHT22;25568;37.410;-122.096;2023-02-03T10:58:30;18.20;75.60
33508;DHT22;25568;37.410;-122.096;2023-02-03T11:01:06;18.30;75.70
33508;DHT22;25568;37.410;-122.096;2023-02-03T11:03:37;18.20;75.70
33508;DHT22;25568;37.410;-122.096;2023-02-03T11:06:10;18.30;75.80
33508;DHT22;25568;37.410;-122.096;2023-02-03T11:08:44;18.30;75.80
33508;DHT22;25568;37.410;-122.096;2023-02-03T11:11:15;18.30;75.80
33508;DHT22;25568;37.410;-122.096;2023-02-03T11:13:52;18.20;75.80
33508;DHT22;25568;37.410;-122.096;2023-02-03T11:16:23;18.30;75.90
33508;DHT22;25568;37.410;-122.096;2023-02-03T11:18:54;18.30;75.90
33508;DHT22;25568;37.410;-122.096;2023-02-03T11:21:26;18.20;75.80
33508;DHT22;25568;37.410;-122.096;2023-02-03T11:24:00;18.20;75.90
33508;DHT22;25568;37.410;-122.096;2023-02-03T11:26:33;18.20;75.90
33508;DHT22;25568;37.410;-122.096;2023-02-03T11:29:06;18.20;76.10
33508;DHT22;25568;37.410;-122.096;2023-02-03T11:31:50;18.20;76.10
33508;DHT22;25568;37.410;-122.096;2023-02-03T11:34:23;18.30;76.30
33508;DHT22;25568;37.410;-122.096;2023-02-03T11:36:53;18.20;76.10
33508;DHT22;25568;37.410;-122.096;2023-02-03T11:39:29;18.30;76.30
33508;DHT22;25568;37.410;-122.096;2023-02-03T11:42:01;18.30;76.00
33508;DHT22;25568;37.410;-122.096;2023-02-03T11:44:32;18.30;76.00
33508;DHT22;25568;37.410;-122.096;2023-02-03T11:47:03;18.30;75.90
33508;DHT22;25568;37.410;-122.096;2023-02-03T11:50:01;18.30;76.10
33508;DHT22;25568;37.410;-122.096;2023-02-03T11:52:49;18.30;75.80
33508;DHT22;25568;37.410;-122.096;2023-02-03T11:55:31;18.30;75.90
33508;DHT22;25568;37.410;-122.096;2023-02-03T12:01:04;18.40;75.80
33508;DHT22;25568;37.410;-122.096;2023-02-03T12:03:51;18.40;75.70
33508;DHT22;25568;37.410;-122.096;2023-02-03T12:06:35;18.40;75.90
33508;DHT22;25568;37.410;-122.096;2023-02-03T12:09:20;18.40;75.80
33508;DHT22;25568;37.410;-122.096;2023-02-03T12:12:16;18.40;75.70
33508;DHT22;25568;37.410;-122.096;2023-02-03T12:14:55;18.40;75.80
33508;DHT22;25568;37.410;-122.096;2023-02-03T12:17:52;18.50;75.80
33508;DHT22;25568;37.410;-122.096;2023-02-03T12:20:38;18.50;75.60
33508;DHT22;25568;37.410;-122.096;2023-02-03T12:23:17;18.50;75.60
33508;DHT22;25568;37.410;-122.096;2023-02-03T12:26:02;18.50;75.60
33508;DHT22;25568;37.410;-122.096;2023-02-03T12:28:45;18.50;75.80
33508;DHT22;25568;37.410;-122.096;2023-02-03T12:31:20;18.50;75.80
33508;DHT22;25568;37.410;-122.096;2023-02-03T12:34:03;18.50;75.80
33508;DHT22;25568;37.410;-122.096;2023-02-03T12:36:38;18.50;76.00
33508;DHT22;25568;37.410;-122.096;2023-02-03T12:39:16;18.50;76.10
33508;DHT22;25568;37.410;-122.096;2023-02-03T12:41:54;18.40;76.10
33508;DHT22;25568;37.410;-122.096;2023-02-03T12:44:30;18.40;76.20
33508;DHT22;25568;37.410;-122.096;2023-02-03T12:47:03;18.40;76.30
33508;DHT22;25568;37.410;-122.096;2023-02-03T12:49:41;18.40;76.40
33508;DHT22;25568;37.410;-122.096;2023-02-03T12:52:17;18.40;76.30
33508;DHT22;25568;37.410;-122.096;2023-02-03T12:54:56;18.40;76.40
33508;DHT22;25568;37.410;-122.096;2023-02-03T12:57:31;18.40;76.40
33508;DHT22;25568;37.410;-122.096;2023-02-03T13:00:16;18.40;76.50
33508;DHT22;25568;37.410;-122.096;2023-02-03T13:03:01;18.40;76.50
33508;DHT22;25568;37.410;-122.096;2023-02-03T13:05:41;18.40;76.60
33508;DHT22;25568;37.410;-122.096;2023-02-03T13:08:19;18.40;76.80
33508;DHT22;25568;37.410;-122.096;2023-02-03T13:10:54;18.40;76.80
33508;DHT22;25568;37.410;-122.096;2023-02-03T13:13:30;18.40;77.10
33508;DHT22;25568;37.410;-122.096;2023-02-03T13:16:05;18.40;77.10
33508;DHT22;25568;37.410;-122.096;2023-02-03T13:18:37;18.40;77.10
33508;DHT22;25568;37.410;-122.096;2023-02-03T13:21:11;18.40;77.10
33508;DHT22;25568;37.410;-122.096;2023-02-03T13:23:41;18.40;77.10
33508;DHT22;25568;37.410;-122.096;2023-02-03T13:26:49;18.40;77.10
33508;DHT22;25568;37.410;-122.096;2023-02-03T13:29:47;18.40;77.10
33508;DHT22;25568;37.410;-122.096;2023-02-03T13:32:40;18.40;77.20
33508;DHT22;25568;37.410;-122.096;2023-02-03T13:35:43;18.50;77.20
33508;DHT22;25568;37.410;-122.096;2023-02-03T13:38:49;18.40;77.10
33508;DHT22;25568;37.410;-122.096;2023-02-03T13:41:27;18.50;77.20
33508;DHT22;25568;37.410;-122.096;2023-02-03T13:43:59;18.50;77.10
33508;DHT22;25568;37.410;-122.096;2023-02-03T13:46:31;18.50;77.20
33508;DHT22;25568;37.410;-122.096;2023-02-03T13:49:04;18.50;77.10
33508;DHT22;25568;37.410;-122.096;2023-02-03T13:51:36;18.50;77.20
33508;DHT22;25568;37.410;-122.096;2023-02-03T13:54:19;18.60;77.10
33508;DHT22;25568;37.410;-122.096;2023-02-03T13:57:03;18.50;77.40
33508;DHT22;25568;37.410;-122.096;2023-02-03T13:59:40;18.60;77.30
33508;DHT22;25568;37.410;-122.096;2023-02-03T14:05:41;18.60;77.40
33508;DHT22;25568;37.410;-122.096;2023-02-03T14:11:43;18.60;77.10
33508;DHT22;25568;37.410;-122.096;2023-02-03T14:14:41;18.60;77.20
33508;DHT22;25568;37.410;-122.096;2023-02-03T14:20:57;18.60;77.00
33508;DHT22;25568;37.410;-122.096;2023-02-03T14:23:53;18.60;76.90
33508;DHT22;25568;37.410;-122.096;2023-02-03T14:26:33;18.60;76.90
33508;DHT22;25568;37.410;-122.096;2023-02-03T14:29:07;18.60;77.10
33508;DHT22;25568;37.410;-122.096;2023-02-03T14:31:57;18.60;77.30
33508;DHT22;25568;37.410;-122.096;2023-02-03T14:34:38;18.50;77.40
33508;DHT22;25568;37.410;-122.096;2023-02-03T14:37:20;18.50;77.40
33508;DHT22;25568;37.410;-122.096;2023-02-03T14:40:11;18.50;77.40
33508;DHT22;25568;37.410;-122.096;2023-02-03T14:46:20;18.50;77.50
33508;DHT22;25568;37.410;-122.096;2023-02-03T14:49:16;18.50;77.60
33508;DHT22;25568;37.410;-122.096;2023-02-03T14:52:07;18.50;77.60
33508;DHT22;25568;37.410;-122.096;2023-02-03T14:57:42;18.40;77.80
33508;DHT22;25568;37.410;-122.096;2023-02-03T15:00:33;18.40;77.90
33508;DHT22;25568;37.410;-122.096;2023-02-03T15:03:24;18.40;78.10
33508;DHT22;25568;37.410;-122.096;2023-02-03T15:06:00;18.40;78.20
33508;DHT22;25568;37.410;-122.096;2023-02-03T15:08:33;18.40;78.60
33508;DHT22;25568;37.410;-122.096;2023-02-03T15:11:28;18.40;78.60
33508;DHT22;25568;37.410;-122.096;2023-02-03T15:14:21;18.40;78.60
33508;DHT22;25568;37.410;-122.096;2023-02-03T15:16:54;18.40;78.70
33508;DHT22;25568;37.410;-122.096;2023-02-03T15:19:27;18.30;78.60
33508;DHT22;25568;37.410;-122.096;2023-02-03T15:21:56;18.40;78.50
33508;DHT22;25568;37.410;-122.096;2023-02-03T15:24:33;18.40;78.20
33508;DHT22;25568;37.410;-122.096;2023-02-03T15:27:03;18.30;78.30
33508;DHT22;25568;37.410;-122.096;2023-02-03T15:29:33;18.40;77.90
33508;DHT22;25568;37.410;-122.096;2023-02-03T15:32:08;18.40;78.00
33508;DHT22;25568;37.410;-122.096;2023-02-03T15:34:46;18.40;78.00
33508;DHT22;25568;37.410;-122.096;2023-02-03T15:37:19;18.40;77.70
33508;DHT22;25568;37.410;-122.096;2023-02-03T15:40:00;18.40;77.70
33508;DHT22;25568;37.410;-122.096;2023-02-03T15:42:33;18.40;77.30
33508;DHT22;25568;37.410;-122.096;2023-02-03T15:45:07;18.40;77.60
33508;DHT22;25568;37.410;-122.096;2023-02-03T15:47:45;18.40;77.20
33508;DHT22;25568;37.410;-122.096;2023-02-03T15:50:24;18.40;77.20
33508;DHT22;25568;37.410;-122.096;2023-02-03T15:52:58;18.40;79.40
33508;DHT22;25568;37.410;-122.096;2023-02-03T15:55:34;18.40;80.10